createdAt,value
2018-05-08T00:01:24.539Z,71.50
2018-05-08T00:03:27.924Z,71.60
2018-05-08T00:05:30.544Z,71.50
2018-05-08T00:07:33.479Z,71.90
2018-05-08T00:09:36.357Z,71.40
2018-05-08T00:11:39.044Z,71.80
2018-05-08T00:13:41.652Z,71.90
2018-05-08T00:15:44.265Z,71.80
2018-05-08T00:17:46.860Z,72.20
2018-05-08T00:19:49.605Z,72.00
2018-05-08T00:21:52.607Z,72.10
2018-05-08T00:23:55.208Z,72.20
2018-05-08T00:25:57.837Z,72.10
2018-05-08T00:28:00.494Z,72.50
2018-05-08T00:30:03.085Z,71.90
2018-05-08T00:32:05.719Z,72.00
2018-05-08T00:34:09.107Z,72.20
2018-05-08T00:36:11.726Z,72.10
2018-05-08T00:38:14.348Z,72.80
2018-05-08T00:40:16.958Z,72.20
2018-05-08T00:42:19.592Z,72.30
2018-05-08T00:44:22.201Z,72.40
2018-05-08T00:46:25.645Z,72.30
2018-05-08T00:48:28.265Z,72.30
2018-05-08T00:50:31.662Z,72.10
2018-05-08T00:52:35.048Z,72.20
2018-05-08T00:54:49.448Z,72.20
2018-05-08T00:56:52.053Z,71.90
2018-05-08T00:58:54.660Z,72.40
2018-05-08T01:00:58.037Z,72.90
2018-05-08T01:03:00.729Z,72.80
2018-05-08T01:05:04.237Z,72.80
2018-05-08T01:07:06.768Z,72.80
2018-05-08T01:09:09.451Z,72.80
2018-05-08T01:11:12.069Z,72.60
2018-05-08T01:13:14.732Z,72.50
2018-05-08T01:15:18.111Z,72.60
2018-05-08T01:17:20.799Z,72.60
2018-05-08T01:19:24.177Z,72.70
2018-05-08T01:21:26.767Z,72.70
2018-05-08T01:23:30.172Z,72.60
2018-05-08T01:25:33.516Z,72.80
2018-05-08T01:27:36.910Z,73.10
2018-05-08T01:29:39.504Z,73.10
2018-05-08T01:31:42.206Z,73.10
2018-05-08T01:33:44.920Z,73.20
2018-05-08T01:35:47.531Z,73.40
2018-05-08T01:37:50.167Z,73.20
2018-05-08T01:39:52.760Z,73.40
2018-05-08T01:41:55.418Z,73.60
2018-05-08T01:43:58.024Z,73.50
2018-05-08T01:46:00.619Z,73.50
2018-05-08T01:48:03.234Z,73.50
2018-05-08T01:50:05.830Z,73.70
2018-05-08T01:52:08.460Z,73.80
2018-05-08T01:54:11.847Z,73.90
2018-05-08T01:56:14.497Z,73.70
2018-05-08T01:58:17.104Z,73.60
2018-05-08T02:00:19.705Z,73.50
2018-05-08T02:02:22.363Z,73.70
2018-05-08T02:04:25.732Z,73.70
2018-05-08T02:06:28.336Z,73.70
2018-05-08T02:08:31.727Z,73.70
2018-05-08T02:10:35.111Z,73.90
2018-05-08T02:12:37.807Z,73.90
2018-05-08T02:14:41.175Z,73.30
2018-05-08T02:16:43.765Z,73.30
2018-05-08T02:18:47.147Z,73.20
2018-05-08T02:20:49.735Z,73.00
2018-05-08T02:22:53.141Z,73.30
2018-05-08T02:24:56.507Z,73.80
2018-05-08T02:26:59.103Z,73.20
2018-05-08T02:29:04.105Z,72.80
2018-05-08T02:31:06.736Z,72.80
2018-05-08T02:33:09.360Z,72.90
2018-05-08T02:35:11.947Z,73.70
2018-05-08T02:37:14.566Z,72.90
2018-05-08T02:39:17.185Z,73.00
2018-05-08T02:41:19.825Z,73.00
2018-05-08T02:43:22.460Z,73.10
2018-05-08T02:45:25.953Z,73.50
2018-05-08T02:47:29.311Z,73.60
2018-05-08T02:49:31.938Z,73.60
2018-05-08T02:51:35.313Z,73.50
2018-05-08T02:53:38.693Z,72.70
2018-05-08T02:55:41.353Z,73.10
2018-05-08T02:57:43.991Z,73.40
2018-05-08T02:59:46.600Z,74.30
2018-05-08T03:01:49.224Z,73.10
2018-05-08T03:03:52.601Z,72.30
2018-05-08T03:05:55.221Z,72.20
2018-05-08T03:07:57.830Z,72.70
2018-05-08T03:10:00.419Z,72.90
2018-05-08T03:12:03.027Z,72.60
2018-05-08T03:14:05.682Z,72.90
2018-05-08T03:16:08.383Z,72.10
2018-05-08T03:18:11.027Z,72.30
2018-05-08T03:20:14.397Z,71.60
2018-05-08T03:22:17.026Z,72.00
2018-05-08T03:24:19.689Z,72.40
2018-05-08T03:26:23.877Z,72.10
2018-05-08T03:28:26.491Z,72.10
2018-05-08T03:30:29.112Z,72.00
2018-05-08T03:32:31.708Z,72.60
2018-05-08T03:34:34.320Z,71.90
2018-05-08T03:36:36.960Z,71.80
2018-05-08T03:38:39.603Z,72.10
2018-05-08T03:40:42.201Z,71.90
2018-05-08T03:42:44.784Z,71.80
2018-05-08T03:44:47.391Z,72.10
2018-05-08T03:46:49.983Z,71.90
2018-05-08T03:48:52.587Z,72.10
2018-05-08T03:50:55.267Z,72.10
2018-05-08T03:52:57.866Z,72.60
2018-05-08T03:55:00.482Z,72.20
2018-05-08T03:57:03.171Z,72.30
2018-05-08T03:59:06.680Z,72.20
2018-05-08T04:01:22.220Z,72.20
2018-05-08T04:03:37.252Z,72.80
2018-05-08T04:05:50.121Z,72.70
2018-05-08T04:08:04.659Z,72.40
2018-05-08T04:10:08.035Z,73.10
2018-05-08T04:12:10.647Z,73.10
2018-05-08T04:14:13.256Z,73.60
2018-05-08T04:16:15.891Z,73.60
2018-05-08T04:18:18.894Z,73.30
2018-05-08T04:20:21.496Z,73.30
2018-05-08T04:22:24.859Z,73.80
2018-05-08T04:24:28.491Z,73.70
2018-05-08T04:26:31.120Z,74.20
2018-05-08T04:28:33.739Z,74.20
2018-05-08T04:30:36.384Z,74.00
2018-05-08T04:32:39.021Z,74.20
2018-05-08T04:34:41.633Z,74.60
2018-05-08T04:36:52.155Z,74.90
2018-05-08T04:38:54.760Z,74.80
2018-05-08T04:40:57.380Z,74.90
2018-05-08T04:42:59.994Z,74.70
2018-05-08T04:45:03.431Z,75.20
2018-05-08T04:47:06.089Z,75.10
2018-05-08T04:49:09.017Z,75.10
2018-05-08T04:51:11.650Z,75.60
2018-05-08T04:53:14.256Z,75.40
2018-05-08T04:55:16.908Z,75.30
2018-05-08T04:57:19.496Z,75.40
2018-05-08T04:59:22.107Z,75.80
2018-05-08T05:01:24.738Z,76.20
2018-05-08T05:03:27.417Z,76.00
2018-05-08T05:05:30.056Z,76.10
2018-05-08T05:07:33.417Z,76.10
2018-05-08T05:09:36.363Z,76.10
2018-05-08T05:11:38.980Z,75.70
2018-05-08T05:13:41.615Z,76.60
2018-05-08T05:15:44.245Z,76.50
2018-05-08T05:17:46.858Z,76.60
2018-05-08T05:19:49.530Z,76.70
2018-05-08T05:21:52.161Z,77.10
2018-05-08T05:23:54.776Z,76.50
2018-05-08T05:25:58.226Z,75.50
2018-05-08T05:28:00.826Z,75.50
2018-05-08T05:30:03.440Z,76.00
2018-05-08T05:32:06.076Z,75.00
2018-05-08T05:34:08.707Z,74.30
2018-05-08T05:36:11.608Z,74.00
2018-05-08T05:38:14.209Z,73.00
2018-05-08T05:40:16.897Z,72.40
2018-05-08T05:42:20.275Z,69.40
2018-05-08T05:44:22.879Z,69.40
2018-05-08T05:46:26.268Z,69.80
2018-05-08T05:48:29.675Z,69.80
2018-05-08T05:50:32.291Z,69.70
2018-05-08T05:52:34.900Z,68.30
2018-05-08T05:54:37.498Z,69.00
2018-05-08T05:56:40.249Z,69.00
2018-05-08T05:58:43.620Z,67.20
2018-05-08T06:00:46.311Z,67.20
2018-05-08T06:02:48.899Z,67.90
2018-05-08T06:04:51.483Z,67.10
2018-05-08T06:06:54.879Z,66.90
2018-05-08T06:08:58.237Z,65.90
2018-05-08T06:11:00.850Z,65.90
2018-05-08T06:13:04.197Z,66.20
2018-05-08T06:15:06.808Z,66.10
2018-05-08T06:17:09.412Z,65.60
2018-05-08T06:19:12.045Z,64.20
2018-05-08T06:21:14.680Z,64.60
2018-05-08T06:23:17.281Z,63.50
2018-05-08T06:25:20.641Z,63.90
2018-05-08T06:27:23.264Z,63.90
2018-05-08T06:29:25.883Z,64.20
2018-05-08T06:31:29.285Z,62.20
2018-05-08T06:33:31.884Z,63.20
2018-05-08T06:35:34.519Z,62.90
2018-05-08T06:37:37.905Z,62.10
2018-05-08T06:39:41.256Z,62.50
2018-05-08T06:41:43.993Z,62.50
2018-05-08T06:43:46.588Z,62.40
2018-05-08T06:45:49.180Z,62.20
2018-05-08T06:47:51.830Z,61.20
2018-05-08T06:49:54.511Z,61.20
2018-05-08T06:51:57.171Z,61.70
2018-05-08T06:53:59.760Z,61.80
2018-05-08T06:56:02.369Z,61.10
2018-05-08T06:58:04.999Z,61.70
2018-05-08T07:00:07.596Z,60.40
2018-05-08T07:02:10.229Z,60.80
2018-05-08T07:04:13.648Z,60.10
2018-05-08T07:06:16.239Z,60.10
2018-05-08T07:08:18.869Z,60.30
2018-05-08T07:10:21.456Z,60.60
2018-05-08T07:12:24.837Z,59.90
2018-05-08T07:14:27.468Z,59.80
2018-05-08T07:16:30.080Z,60.10
2018-05-08T07:18:32.739Z,59.90
2018-05-08T07:20:35.367Z,60.30
2018-05-08T07:22:38.813Z,59.90
2018-05-08T07:24:41.764Z,59.80
2018-05-08T07:26:44.355Z,60.10
2018-05-08T07:28:46.940Z,59.90
2018-05-08T07:30:49.580Z,59.80
2018-05-08T07:32:52.724Z,60.10
2018-05-08T07:34:55.320Z,60.90
2018-05-08T07:36:57.943Z,60.70
2018-05-08T07:39:00.549Z,59.70
2018-05-08T07:41:03.153Z,60.50
2018-05-08T07:43:05.770Z,59.80
2018-05-08T07:45:08.375Z,59.70
2018-05-08T07:47:10.971Z,59.60
2018-05-08T07:49:14.397Z,59.30
2018-05-08T07:51:17.003Z,59.30
2018-05-08T07:53:19.600Z,59.60
2018-05-08T07:55:22.191Z,59.00
2018-05-08T07:57:25.572Z,58.60
2018-05-08T07:59:28.187Z,58.50
2018-05-08T08:01:30.863Z,58.70
2018-05-08T08:03:33.460Z,59.40
2018-05-08T08:05:36.052Z,59.10
2018-05-08T08:07:38.664Z,59.10
2018-05-08T08:09:42.072Z,58.60
2018-05-08T08:11:44.664Z,58.60
2018-05-08T08:13:47.289Z,57.50
2018-05-08T08:15:49.928Z,57.80
2018-05-08T08:17:52.639Z,57.40
2018-05-08T08:19:55.219Z,57.00
2018-05-08T08:21:57.820Z,56.70
2018-05-08T08:24:01.230Z,57.10
2018-05-08T08:26:03.819Z,57.10
2018-05-08T08:28:06.439Z,57.00
2018-05-08T08:30:09.089Z,56.60
2018-05-08T08:32:11.683Z,56.20
2018-05-08T08:34:14.294Z,56.20
2018-05-08T08:36:17.724Z,56.10
2018-05-08T08:38:20.380Z,56.10
2018-05-08T08:40:23.221Z,55.90
2018-05-08T08:42:25.841Z,54.90
2018-05-08T08:44:28.500Z,55.10
2018-05-08T08:46:31.939Z,56.00
2018-05-08T08:48:35.279Z,56.20
2018-05-08T08:50:38.673Z,54.20
2018-05-08T08:52:42.049Z,54.10
2018-05-08T08:54:44.672Z,54.10
2018-05-08T08:56:47.286Z,54.10
2018-05-08T08:58:49.900Z,53.40
2018-05-08T09:00:53.327Z,52.60
2018-05-08T09:02:55.941Z,52.50
2018-05-08T09:04:58.584Z,52.80
2018-05-08T09:07:01.262Z,52.60
2018-05-08T09:09:04.011Z,53.40
2018-05-08T09:11:07.402Z,51.40
2018-05-08T09:13:10.775Z,51.40
2018-05-08T09:15:14.162Z,50.80
2018-05-08T09:17:16.807Z,50.80
2018-05-08T09:19:19.570Z,48.40
2018-05-08T09:21:22.201Z,49.60
2018-05-08T09:23:24.824Z,49.60
2018-05-08T09:25:27.454Z,50.20
2018-05-08T09:27:30.895Z,49.50
2018-05-08T09:29:33.457Z,49.50
2018-05-08T09:31:36.134Z,49.70
2018-05-08T09:33:38.718Z,49.50
2018-05-08T09:35:42.181Z,48.10
2018-05-08T09:37:45.682Z,47.20
2018-05-08T09:39:49.071Z,47.20
2018-05-08T09:41:52.435Z,47.00
2018-05-08T09:43:55.052Z,46.90
2018-05-08T09:45:58.422Z,47.00
2018-05-08T09:48:01.047Z,47.00
2018-05-08T09:50:03.795Z,47.00
2018-05-08T09:52:07.169Z,46.80
2018-05-08T09:54:09.809Z,46.80
2018-05-08T09:56:12.384Z,47.50
2018-05-08T09:58:15.022Z,46.70
2018-05-08T10:00:17.655Z,46.90
2018-05-08T10:02:20.282Z,47.10
2018-05-08T10:04:22.897Z,45.60
2018-05-08T10:06:25.504Z,46.20
2018-05-08T10:08:28.111Z,46.30
2018-05-08T10:10:31.041Z,48.10
2018-05-08T10:12:33.754Z,47.70
2018-05-08T10:14:37.243Z,46.70
2018-05-08T10:16:40.599Z,47.00
2018-05-08T10:18:45.634Z,47.00
2018-05-08T10:20:48.278Z,46.20
2018-05-08T10:22:50.947Z,46.30
2018-05-08T10:24:53.803Z,46.80
2018-05-08T10:26:56.544Z,47.20
2018-05-08T10:28:59.213Z,46.70
2018-05-08T10:31:01.840Z,47.30
2018-05-08T10:33:05.290Z,46.30
2018-05-08T10:35:07.907Z,46.30
2018-05-08T10:37:11.264Z,46.90
2018-05-08T10:39:13.898Z,46.80
2018-05-08T10:41:16.499Z,46.70
2018-05-08T10:43:22.192Z,45.20
2018-05-08T10:45:24.860Z,44.50
2018-05-08T10:47:29.133Z,44.10
2018-05-08T10:49:31.813Z,44.00
2018-05-08T10:51:34.400Z,43.40
2018-05-08T10:53:37.027Z,43.10
2018-05-08T10:55:40.443Z,42.30
2018-05-08T10:57:43.031Z,42.20
2018-05-08T10:59:45.648Z,42.20
2018-05-08T11:01:48.300Z,42.50
2018-05-08T11:03:51.690Z,43.90
2018-05-08T11:05:54.318Z,43.90
2018-05-08T11:07:57.676Z,44.60
2018-05-08T11:10:00.295Z,44.60
2018-05-08T11:12:02.933Z,44.30
2018-05-08T11:14:05.535Z,44.00
2018-05-08T11:16:09.081Z,42.30
2018-05-08T11:20:13.000Z,42.90
2018-05-08T11:22:16.408Z,43.10
2018-05-08T11:24:19.024Z,43.10
2018-05-08T11:26:21.625Z,43.40
2018-05-08T11:28:24.464Z,43.60
2018-05-08T11:30:27.857Z,42.50
2018-05-08T11:32:31.236Z,42.10
2018-05-08T11:34:37.545Z,42.10
2018-05-08T11:36:40.144Z,42.10
2018-05-08T11:38:42.791Z,40.10
2018-05-08T11:40:45.392Z,40.50
2018-05-08T11:42:47.995Z,41.80
2018-05-08T11:44:51.348Z,42.20
2018-05-08T11:46:53.955Z,42.20
2018-05-08T11:48:56.629Z,40.50
2018-05-08T11:51:02.300Z,40.50
2018-05-08T11:53:05.665Z,40.00
2018-05-08T11:55:11.123Z,39.90
2018-05-08T11:57:14.498Z,39.50
2018-05-08T11:59:19.075Z,39.50
2018-05-08T12:01:21.691Z,40.70
2018-05-08T12:03:24.309Z,41.40
2018-05-08T12:05:26.938Z,40.10
2018-05-08T12:07:29.552Z,39.60
2018-05-08T12:09:32.136Z,40.00
2018-05-08T12:11:34.761Z,40.80
2018-05-08T12:13:37.361Z,38.70
2018-05-08T12:15:40.728Z,38.00
2018-05-08T12:17:43.333Z,38.00
2018-05-08T12:19:46.710Z,37.60
2018-05-08T12:21:49.458Z,37.60
2018-05-08T12:23:52.748Z,38.70
2018-05-08T12:25:55.358Z,38.70
2018-05-08T12:27:58.712Z,36.10
2018-05-08T12:30:01.338Z,36.00
2018-05-08T12:32:04.739Z,36.50
2018-05-08T12:34:07.336Z,36.40
2018-05-08T12:36:10.104Z,35.90
2018-05-08T12:38:12.637Z,35.00
2018-05-08T12:40:15.231Z,35.60
2018-05-08T12:42:18.632Z,36.50
2018-05-08T12:44:21.254Z,36.50
2018-05-08T12:46:23.851Z,37.20
2018-05-08T12:48:26.602Z,37.20
2018-05-08T12:50:29.221Z,38.00
2018-05-08T12:52:31.833Z,37.30
2018-05-08T12:54:34.429Z,37.10
2018-05-08T12:56:37.055Z,36.50
2018-05-08T12:58:39.652Z,35.10
2018-05-08T13:00:42.261Z,34.50
2018-05-08T13:02:45.657Z,35.30
2018-05-08T13:04:48.273Z,35.20
2018-05-08T13:06:50.908Z,35.40
2018-05-08T13:08:53.575Z,31.50
2018-05-08T13:10:56.183Z,31.80
2018-05-08T13:12:59.564Z,32.40
2018-05-08T13:15:02.930Z,32.30
2018-05-08T13:17:05.574Z,32.30
2018-05-08T13:19:08.164Z,33.70
2018-05-08T13:21:10.745Z,33.10
2018-05-08T13:23:13.359Z,32.40
2018-05-08T13:25:16.712Z,33.90
2018-05-08T13:27:19.335Z,33.70
2018-05-08T13:29:22.681Z,33.70
2018-05-08T13:31:25.416Z,33.60
2018-05-08T13:33:28.036Z,34.00
2018-05-08T13:35:31.127Z,34.80
2018-05-08T13:37:33.722Z,32.80
2018-05-08T13:39:36.304Z,33.90
2018-05-08T13:41:39.664Z,33.30
2018-05-08T13:43:42.277Z,33.20
2018-05-08T13:45:45.668Z,34.30
2018-05-08T13:47:49.270Z,33.70
2018-05-08T13:49:52.612Z,33.50
2018-05-08T13:51:55.410Z,33.50
2018-05-08T13:53:58.004Z,32.80
2018-05-08T13:56:01.367Z,33.80
2018-05-08T13:58:03.984Z,33.80
2018-05-08T14:00:06.660Z,35.10
2018-05-08T14:02:09.255Z,33.70
2018-05-08T14:04:11.859Z,32.80
2018-05-08T14:06:14.567Z,32.10
2018-05-08T14:08:17.927Z,31.70
2018-05-08T14:10:20.524Z,32.20
2018-05-08T14:12:23.126Z,32.30
2018-05-08T14:14:26.525Z,32.00
2018-05-08T14:16:29.137Z,31.90
2018-05-08T14:18:32.707Z,31.50
2018-05-08T14:20:35.317Z,32.20
2018-05-08T14:22:37.928Z,33.10
2018-05-08T14:24:41.281Z,33.40
2018-05-08T14:26:43.853Z,33.30
2018-05-08T14:28:46.472Z,33.40
2018-05-08T14:30:49.845Z,35.10
2018-05-08T14:32:52.479Z,35.00
2018-05-08T14:34:55.088Z,34.90
2018-05-08T14:36:57.724Z,34.70
2018-05-08T14:39:00.318Z,33.40
2018-05-08T14:41:02.916Z,33.70
2018-05-08T14:43:06.127Z,33.40
2018-05-08T14:45:09.486Z,34.20
2018-05-08T14:47:12.072Z,34.10
2018-05-08T14:49:14.732Z,34.40
2018-05-08T14:51:17.303Z,34.10
2018-05-08T14:53:20.043Z,35.60
2018-05-08T14:55:22.625Z,35.40
2018-05-08T14:57:25.225Z,34.10
2018-05-08T14:59:27.835Z,34.10
2018-05-08T15:01:31.193Z,35.60
2018-05-08T15:03:33.817Z,35.50
2018-05-08T15:05:36.486Z,35.30
2018-05-08T15:07:39.846Z,34.90
2018-05-08T15:09:42.456Z,34.80
2018-05-08T15:11:45.169Z,35.00
2018-05-08T15:13:47.811Z,34.80
2018-05-08T15:15:50.476Z,35.00
2018-05-08T15:17:53.823Z,34.20
2018-05-08T15:19:56.458Z,34.10
2018-05-08T15:21:59.057Z,33.50
2018-05-08T15:24:01.675Z,33.50
2018-05-08T15:26:04.344Z,34.20
2018-05-08T15:28:06.948Z,33.40
2018-05-08T15:30:10.328Z,33.60
2018-05-08T15:32:13.708Z,34.80
2018-05-08T15:34:16.626Z,34.80
2018-05-08T15:36:19.220Z,33.80
2018-05-08T15:38:21.833Z,32.60
2018-05-08T15:40:24.508Z,32.20
2018-05-08T15:42:27.103Z,31.80
2018-05-08T15:44:30.487Z,32.20
2018-05-08T15:46:33.124Z,32.10
2018-05-08T15:48:35.719Z,31.60
2018-05-08T15:50:38.328Z,32.30
2018-05-08T15:52:41.700Z,32.30
2018-05-08T15:54:44.383Z,32.20
2018-05-08T15:56:47.738Z,32.10
2018-05-08T15:58:50.321Z,32.00
2018-05-08T16:00:52.961Z,32.30
2018-05-08T16:02:55.568Z,33.10
2018-05-08T16:04:58.233Z,32.30
2018-05-08T16:07:00.827Z,31.30
2018-05-08T16:09:03.448Z,32.30
2018-05-08T16:11:06.078Z,32.40
2018-05-08T16:13:08.691Z,31.70
2018-05-08T16:15:11.437Z,31.80
2018-05-08T16:17:14.027Z,32.30
2018-05-08T16:19:17.472Z,31.00
2018-05-08T16:21:20.286Z,30.90
2018-05-08T16:23:22.875Z,31.40
2018-05-08T16:25:26.305Z,31.20
2018-05-08T16:27:28.979Z,31.20
2018-05-08T16:29:31.559Z,30.70
2018-05-08T16:31:34.443Z,30.40
2018-05-08T16:33:37.053Z,30.20
2018-05-08T16:35:39.711Z,29.50
2018-05-08T16:37:42.305Z,28.70
2018-05-08T16:39:44.938Z,28.80
2018-05-08T16:41:47.555Z,28.70
2018-05-08T16:43:50.160Z,28.40
2018-05-08T16:45:53.561Z,29.10
2018-05-08T16:47:56.185Z,29.10
2018-05-08T16:49:58.825Z,29.00
2018-05-08T16:52:01.447Z,29.20
2018-05-08T16:54:04.121Z,28.80
2018-05-08T16:56:07.454Z,27.90
2018-05-08T16:58:10.053Z,27.90
2018-05-08T17:00:12.701Z,27.70
2018-05-08T17:02:15.306Z,27.40
2018-05-08T17:04:17.971Z,27.70
2018-05-08T17:06:20.596Z,27.60
2018-05-08T17:08:23.953Z,29.10
2018-05-08T17:10:26.740Z,29.10
2018-05-08T17:12:29.283Z,29.70
2018-05-08T17:14:31.891Z,30.00
2018-05-08T17:16:34.523Z,30.60
2018-05-08T17:18:37.128Z,30.30
2018-05-08T17:20:39.736Z,31.50
2018-05-08T17:22:42.342Z,32.10
2018-05-08T17:24:44.949Z,31.60
2018-05-08T17:26:47.557Z,32.40
2018-05-08T17:28:50.380Z,32.70
2018-05-08T17:30:53.000Z,33.30
2018-05-08T17:32:55.580Z,33.40
2018-05-08T17:34:58.177Z,34.40
2018-05-08T17:37:01.577Z,34.80
2018-05-08T17:39:04.190Z,34.80
2018-05-08T17:41:06.825Z,35.20
2018-05-08T17:43:10.192Z,35.20
2018-05-08T17:45:12.792Z,35.10
2018-05-08T17:47:15.433Z,34.80
2018-05-08T17:49:18.032Z,34.80
2018-05-08T17:51:21.443Z,35.50
2018-05-08T17:53:24.041Z,35.50
2018-05-08T17:55:26.614Z,35.80
2018-05-08T17:57:29.326Z,35.90
2018-05-08T17:59:31.877Z,36.40
2018-05-08T18:01:34.513Z,37.30
2018-05-08T18:03:37.125Z,37.20
2018-05-08T18:05:39.746Z,37.10
2018-05-08T18:07:43.129Z,38.00
2018-05-08T18:09:45.708Z,37.90
2018-05-08T18:11:48.418Z,38.20
2018-05-08T18:13:51.024Z,38.30
2018-05-08T18:15:53.619Z,38.00
2018-05-08T18:17:57.009Z,38.30
2018-05-08T18:19:59.625Z,38.30
2018-05-08T18:22:02.243Z,38.20
2018-05-08T18:24:04.851Z,38.20
2018-05-08T18:26:08.267Z,38.50
2018-05-08T18:28:11.826Z,39.10
2018-05-08T18:30:14.421Z,38.00
2018-05-08T18:32:17.086Z,38.40
2018-05-08T18:34:20.539Z,39.20
2018-05-08T18:36:23.088Z,38.60
2018-05-08T18:38:26.449Z,38.70
2018-05-08T18:40:29.808Z,39.10
2018-05-08T18:42:32.457Z,39.00
2018-05-08T18:44:35.051Z,38.80
2018-05-08T18:46:37.641Z,39.50
2018-05-08T18:48:40.303Z,39.60
2018-05-08T18:50:42.919Z,40.30
2018-05-08T18:52:46.297Z,40.60
2018-05-08T18:54:48.909Z,40.60
2018-05-08T18:56:51.553Z,40.50
2018-05-08T18:58:54.928Z,41.20
2018-05-08T19:00:57.593Z,41.20
2018-05-08T19:03:00.258Z,41.30
2018-05-08T19:05:03.624Z,42.20
2018-05-08T19:07:06.255Z,42.20
2018-05-08T19:09:08.892Z,42.70
2018-05-08T19:11:17.119Z,42.50
2018-05-08T19:13:19.870Z,42.50
2018-05-08T19:15:27.936Z,43.00
2018-05-08T19:17:31.380Z,43.60
2018-05-08T19:19:39.486Z,43.60
2018-05-08T19:21:42.164Z,43.80
2018-05-08T19:23:50.248Z,44.20
2018-05-08T19:25:52.882Z,44.70
2018-05-08T19:28:01.068Z,44.80
2018-05-08T19:30:09.335Z,45.20
2018-05-08T19:32:11.997Z,45.20
2018-05-08T19:34:14.758Z,45.50
2018-05-08T19:36:23.833Z,45.70
2018-05-08T19:38:26.483Z,45.60
2018-05-08T19:40:29.100Z,46.60
2018-05-08T19:42:31.714Z,46.90
2018-05-08T19:44:35.206Z,46.70
2018-05-08T19:46:38.574Z,46.90
2018-05-08T19:48:41.301Z,46.90
2018-05-08T19:50:43.889Z,47.20
2018-05-08T19:52:46.511Z,48.20
2018-05-08T19:54:49.951Z,47.70
2018-05-08T19:56:52.532Z,47.50
2018-05-08T19:58:55.157Z,47.60
2018-05-08T20:00:58.536Z,48.50
2018-05-08T20:03:01.159Z,48.50
2018-05-08T20:05:03.743Z,48.80
2018-05-08T20:07:06.345Z,49.10
2018-05-08T20:09:08.956Z,49.20
2018-05-08T20:11:11.549Z,49.30
2018-05-08T20:13:14.162Z,49.80
2018-05-08T20:15:16.774Z,49.40
2018-05-08T20:17:19.399Z,50.20
2018-05-08T20:19:22.008Z,50.50
2018-05-08T20:21:24.610Z,50.60
2018-05-08T20:23:27.241Z,51.00
2018-05-08T20:25:29.845Z,50.90
2018-05-08T20:27:32.449Z,51.10
2018-05-08T20:29:35.062Z,51.70
2018-05-08T20:31:37.697Z,51.70
2018-05-08T20:33:40.315Z,51.90
2018-05-08T20:35:42.935Z,52.50
2018-05-08T20:37:45.544Z,52.50
2018-05-08T20:39:48.184Z,52.30
2018-05-08T20:41:50.794Z,52.60
2018-05-08T20:43:53.419Z,52.60
2018-05-08T20:45:56.784Z,53.60
2018-05-08T20:47:59.371Z,53.40
2018-05-08T20:50:02.040Z,53.80
2018-05-08T20:52:04.622Z,53.90
2018-05-08T20:54:07.236Z,54.20
2018-05-08T20:56:09.823Z,54.90
2018-05-08T20:58:12.492Z,55.50
2018-05-08T21:00:15.149Z,55.70
2018-05-08T21:02:18.894Z,55.80
2018-05-08T21:04:22.145Z,56.10
2018-05-08T21:06:24.837Z,56.20
2018-05-08T21:08:27.428Z,56.90
2018-05-08T21:10:30.040Z,57.10
2018-05-08T21:12:33.409Z,57.60
2018-05-08T21:14:36.063Z,57.40
2018-05-08T21:16:38.664Z,57.60
2018-05-08T21:18:41.296Z,57.70
2018-05-08T21:20:43.876Z,57.90
2018-05-08T21:22:46.505Z,58.00
2018-05-08T21:24:49.888Z,58.70
2018-05-08T21:26:52.492Z,58.60
2018-05-08T21:28:59.864Z,58.40
2018-05-08T21:31:08.763Z,58.70
2018-05-08T21:33:11.425Z,58.60
2018-05-08T21:35:14.035Z,58.90
2018-05-08T21:37:17.381Z,59.70
2018-05-08T21:39:19.993Z,59.70
2018-05-08T21:41:22.580Z,59.50
2018-05-08T21:43:25.941Z,60.30
2018-05-08T21:45:28.535Z,60.30
2018-05-08T21:47:31.121Z,60.70
2018-05-08T21:49:34.507Z,61.20
2018-05-08T21:51:37.874Z,61.20
2018-05-08T21:53:40.460Z,61.10
2018-05-08T21:55:43.134Z,60.90
2018-05-08T21:57:45.717Z,61.10
2018-05-08T21:59:49.080Z,61.50
2018-05-08T22:01:51.673Z,61.40
2018-05-08T22:03:54.307Z,61.60
2018-05-08T22:05:56.899Z,61.80
2018-05-08T22:07:59.504Z,62.10
2018-05-08T22:10:02.258Z,62.30
2018-05-08T22:12:05.607Z,63.10
2018-05-08T22:14:08.167Z,63.10
2018-05-08T22:16:11.528Z,63.40
2018-05-08T22:18:14.119Z,63.40
2018-05-08T22:20:17.528Z,63.60
2018-05-08T22:22:20.096Z,63.60
2018-05-08T22:24:23.455Z,64.20
2018-05-08T22:26:26.075Z,64.20
2018-05-08T22:28:28.663Z,64.10
2018-05-08T22:30:31.291Z,64.60
2018-05-08T22:32:33.896Z,65.10
2018-05-08T22:34:36.523Z,65.10
2018-05-08T22:36:39.112Z,65.30
2018-05-08T22:38:41.694Z,65.60
2018-05-08T22:40:45.062Z,65.60
2018-05-08T22:42:47.644Z,65.60
2018-05-08T22:44:50.244Z,66.00
2018-05-08T22:46:53.591Z,66.50
2018-05-08T22:48:56.174Z,66.50
2018-05-08T22:50:58.787Z,67.10
2018-05-08T22:53:02.144Z,66.40
2018-05-08T22:55:04.779Z,66.40
2018-05-08T22:57:07.368Z,66.60
2018-05-08T22:59:09.952Z,66.90
2018-05-08T23:01:12.562Z,67.00
2018-05-08T23:03:15.145Z,67.40
2018-05-08T23:05:18.511Z,67.20
2018-05-08T23:07:21.105Z,67.20
2018-05-08T23:09:24.460Z,67.80
2018-05-08T23:11:27.068Z,67.60
2018-05-08T23:13:29.651Z,67.80
2018-05-08T23:15:33.023Z,68.30
2018-05-08T23:17:35.608Z,68.20
2018-05-08T23:19:38.191Z,67.90
2018-05-08T23:21:41.573Z,68.40
2018-05-08T23:23:44.922Z,68.20
2018-05-08T23:25:47.538Z,68.10
2018-05-08T23:27:50.126Z,68.30
2018-05-08T23:29:53.484Z,68.80
2018-05-08T23:31:56.096Z,68.70
2018-05-08T23:33:59.448Z,69.60
2018-05-08T23:36:02.080Z,69.50
2018-05-08T23:38:04.696Z,69.50
2018-05-08T23:40:07.296Z,69.50
2018-05-08T23:42:10.676Z,69.60
2018-05-08T23:44:13.288Z,69.60
2018-05-08T23:46:15.884Z,70.20
2018-05-08T23:48:18.468Z,71.10
2018-05-08T23:50:21.047Z,71.20
2018-05-08T23:52:23.663Z,71.60
2018-05-08T23:54:27.020Z,72.50
2018-05-08T23:56:29.653Z,72.00
2018-05-08T23:58:32.259Z,71.80
